Shallotte, NC (28468)

12:57 PM EST on February 13, 2016 (GMT -0500)
Sunset Ridge | | Change Station
CLOSE
Current Station
Personal Weather Station
Location: Ocean Isle Beach, NC
Elevation: -7 ft
Nearby Weather Stations

Elev -7 ft 33.90 °N, 78.49 °W | Updated 14 minutes ago

Clear
Clear
43.5 °F
Feels Like 38 °F
N
8.9
Wind Variable Wind from NNW

Today
High -- | Low -- °F
--% Chance of Precip.
Yesterday
High -- | Low -- °F
Precip. -- in
Pressure 30.27 in
Visibility 10.0 miles
Clouds Clear
Windchill 38 °F
Dew Point 13 °F
Humidity 29%
Rainfall 0.00 in
Snow Depth Not available.
7:01 AM 5:55 PM
Waxing Crescent, 32% visible
METAR KCRE 131753Z 01010G18KT 10SM CLR 06/M09 A3027 RMK AO1 SLP250 T00611094 10061 21006 50001
Pressure 30.27 in
Visibility 10.0 miles
Clouds Clear
Windchill 38 °F
Dew Point 13 °F
Humidity 29%
Rainfall 0.00 in
Snow Depth Not available.
7:01 AM 5:55 PM
Waxing Crescent, 32% visible
METAR KCRE 131753Z 01010G18KT 10SM CLR 06/M09 A3027 RMK AO1 SLP250 T00611094 10061 21006 50001

10-Day Weather Forecast

Almanac

Astronomy

Feb. 13, 2016 Rise Set
Actual Time
Civil Twilight
Nautical Twilight
Astronomical Twilight
Moon
Length of Visible Light
Length of Day
Tomorrow will be .
, % of the Moon is Illuminated

Today's Extremes

State Highs State Lows

Community

WunderPhotos

Upload Photos

1,892,623 photos uploaded!

WunderBlog® & News

Nearby

Air Quality

  Air Quality AQ Index Pollutant
Not available.

Snow Depth

Station Depth Elevation

Earthquake Activity

City Distance Mag. Time & Date
Minimum magnitude displayed is 2.5.

Coastal Water Temperatures

Place Temperature

Stations

Nearby Weather Stations

Station Location Temp. Windchill Dew Point Humidity Wind Precip. Elev Updated Type
                   

Watches & Warnings

There are currently no watches in effect.